Strona główna
METAR-TAF:

METAR-TAF

Lotnisko :

Port lotniczy Poitiers-Biard

Poitiers, Francja

Szerokość geograficzna: 46-35N, Długość geograficzna: 000-19E, wysokość: 129 m

Aktualna obserwacja pogody

Raport powstał 38 minut temu, godzina 04:00 UTC
Wiatr 3 kt od północ
Temperatura 18°C
Wilgotność 94%
Ciśnienie 1017 hPa
Widzialność 10 km lub więcej
Brak chmur poniżej 1500 m i brak chmur cumulonimbus

METAR: LFBI 260400Z AUTO 36003KT CAVOK 18/17 Q1017 NOSIG

czas: 06:38 (04:38 UTC)

Prognoza

Raport powstał 5 godziny i 38 minut temu, godzina 23:00 UTC
Prognoza ważna od 26 godzina 00 UTC do 26 godzina 24 UTC
Wiatr 5 kt od północny wschód
Widzialność 10 km lub więcej
Brak chmur poniżej 1500 m i brak chmur cumulonimbus

TAF: LFBI 252300Z 2600/2624 05005KT CAVOK

Obserwacja i prognoza pogody dla ponad 4000 lotnisk (raport METAR i TAF).

Dostępne stacje oznaczono żółtymi i czerwonymi punktami na mapie.

Najedź kursorem aby zobaczyć nazwę stacji.

Kliknij aby zobaczyć obserwacje i prognozy pogody.

Aby zmienić mapę: kliknij na zielony przycisk z czarnym krzyżykiem, aby powiększyć; na zielony przycisk z myślnikiem, aby pomniejszyć; na zielone strzałki, aby przejść do map sąsiednich.


METAR-TAF: